sensor_id;sensor_type;location;lat;lon;timestamp;temperature;humidity
2226;DHT22;1119;48.288;8.726;2023-04-01T00:00:13;7.40;99.90
2226;DHT22;1119;48.288;8.726;2023-04-01T00:03:01;7.40;99.90
2226;DHT22;1119;48.288;8.726;2023-04-01T00:05:49;7.50;99.90
2226;DHT22;1119;48.288;8.726;2023-04-01T00:08:38;7.50;99.90
2226;DHT22;1119;48.288;8.726;2023-04-01T00:11:26;7.50;99.90
2226;DHT22;1119;48.288;8.726;2023-04-01T00:14:13;7.50;99.90
2226;DHT22;1119;48.288;8.726;2023-04-01T00:17:01;7.50;99.90
2226;DHT22;1119;48.288;8.726;2023-04-01T00:19:48;7.50;99.90
2226;DHT22;1119;48.288;8.726;2023-04-01T00:22:36;7.50;99.90
2226;DHT22;1119;48.288;8.726;2023-04-01T00:25:25;7.50;99.90
2226;DHT22;1119;48.288;8.726;2023-04-01T00:28:13;7.50;99.90
2226;DHT22;1119;48.288;8.726;2023-04-01T00:31:05;7.50;99.90
2226;DHT22;1119;48.288;8.726;2023-04-01T00:33:53;7.50;99.90
2226;DHT22;1119;48.288;8.726;2023-04-01T00:36:40;7.50;99.90
2226;DHT22;1119;48.288;8.726;2023-04-01T00:39:28;7.40;99.90
2226;DHT22;1119;48.288;8.726;2023-04-01T00:42:18;7.40;99.90
2226;DHT22;1119;48.288;8.726;2023-04-01T00:45:23;7.40;99.90
2226;DHT22;1119;48.288;8.726;2023-04-01T00:48:16;7.40;99.90
2226;DHT22;1119;48.288;8.726;2023-04-01T00:51:08;7.40;99.90
2226;DHT22;1119;48.288;8.726;2023-04-01T00:53:59;7.40;99.90
2226;DHT22;1119;48.288;8.726;2023-04-01T00:56:51;7.30;99.90
2226;DHT22;1119;48.288;8.726;2023-04-01T00:59:46;7.30;99.90
2226;DHT22;1119;48.288;8.726;2023-04-01T01:02:35;7.30;99.90
2226;DHT22;1119;48.288;8.726;2023-04-01T01:05:30;7.20;99.90
2226;DHT22;1119;48.288;8.726;2023-04-01T01:08:30;7.10;99.90
2226;DHT22;1119;48.288;8.726;2023-04-01T01:11:29;7.10;99.90
2226;DHT22;1119;48.288;8.726;2023-04-01T01:14:28;7.10;99.90
2226;DHT22;1119;48.288;8.726;2023-04-01T01:21:04;7.00;99.90
2226;DHT22;1119;48.288;8.726;2023-04-01T01:24:33;7.00;99.90
2226;DHT22;1119;48.288;8.726;2023-04-01T01:27:29;7.00;99.90
2226;DHT22;1119;48.288;8.726;2023-04-01T01:30:37;7.00;99.90
2226;DHT22;1119;48.288;8.726;2023-04-01T01:33:35;7.00;99.90
2226;DHT22;1119;48.288;8.726;2023-04-01T01:36:32;7.00;99.90
2226;DHT22;1119;48.288;8.726;2023-04-01T01:39:27;7.00;99.90
2226;DHT22;1119;48.288;8.726;2023-04-01T01:42:18;7.00;99.90
2226;DHT22;1119;48.288;8.726;2023-04-01T01:45:08;6.90;99.90
2226;DHT22;1119;48.288;8.726;2023-04-01T01:47:59;6.90;99.90
2226;DHT22;1119;48.288;8.726;2023-04-01T01:50:48;6.80;99.90
2226;DHT22;1119;48.288;8.726;2023-04-01T01:53:38;6.80;99.90
2226;DHT22;1119;48.288;8.726;2023-04-01T01:56:28;6.70;99.90
2226;DHT22;1119;48.288;8.726;2023-04-01T01:59:20;6.70;99.90
2226;DHT22;1119;48.288;8.726;2023-04-01T02:02:09;6.70;99.90
2226;DHT22;1119;48.288;8.726;2023-04-01T02:04:58;6.70;99.90
2226;DHT22;1119;48.288;8.726;2023-04-01T02:07:49;6.70;99.90
2226;DHT22;1119;48.288;8.726;2023-04-01T02:10:47;6.80;99.90
2226;DHT22;1119;48.288;8.726;2023-04-01T02:13:43;6.80;99.90
2226;DHT22;1119;48.288;8.726;2023-04-01T02:16:36;6.80;99.90
2226;DHT22;1119;48.288;8.726;2023-04-01T02:19:29;6.80;99.90
2226;DHT22;1119;48.288;8.726;2023-04-01T02:22:23;6.80;99.90
2226;DHT22;1119;48.288;8.726;2023-04-01T02:25:14;6.90;99.90
2226;DHT22;1119;48.288;8.726;2023-04-01T02:28:06;6.90;99.90
2226;DHT22;1119;48.288;8.726;2023-04-01T02:30:55;7.00;99.90
2226;DHT22;1119;48.288;8.726;2023-04-01T02:33:45;7.10;99.90
2226;DHT22;1119;48.288;8.726;2023-04-01T02:36:35;7.20;99.90
2226;DHT22;1119;48.288;8.726;2023-04-01T02:39:23;7.20;99.90
2226;DHT22;1119;48.288;8.726;2023-04-01T02:42:12;7.20;99.90
2226;DHT22;1119;48.288;8.726;2023-04-01T02:45:02;7.20;99.90
2226;DHT22;1119;48.288;8.726;2023-04-01T02:47:50;7.30;99.90
2226;DHT22;1119;48.288;8.726;2023-04-01T02:50:38;7.30;99.90
2226;DHT22;1119;48.288;8.726;2023-04-01T02:53:25;7.40;99.90
2226;DHT22;1119;48.288;8.726;2023-04-01T02:56:13;7.50;99.90
2226;DHT22;1119;48.288;8.726;2023-04-01T02:59:01;7.60;99.90
2226;DHT22;1119;48.288;8.726;2023-04-01T03:01:50;7.60;99.90
2226;DHT22;1119;48.288;8.726;2023-04-01T03:04:37;7.60;99.90
2226;DHT22;1119;48.288;8.726;2023-04-01T03:07:25;7.50;99.90
2226;DHT22;1119;48.288;8.726;2023-04-01T03:10:13;7.40;99.90
2226;DHT22;1119;48.288;8.726;2023-04-01T03:13:01;7.20;99.90
2226;DHT22;1119;48.288;8.726;2023-04-01T03:15:49;7.20;99.90
2226;DHT22;1119;48.288;8.726;2023-04-01T03:18:37;7.00;99.90
2226;DHT22;1119;48.288;8.726;2023-04-01T03:21:25;6.90;99.90
2226;DHT22;1119;48.288;8.726;2023-04-01T03:24:13;6.90;99.90
2226;DHT22;1119;48.288;8.726;2023-04-01T03:27:01;6.80;99.90
2226;DHT22;1119;48.288;8.726;2023-04-01T03:29:48;6.70;99.90
2226;DHT22;1119;48.288;8.726;2023-04-01T03:32:37;6.70;99.90
2226;DHT22;1119;48.288;8.726;2023-04-01T03:35:26;6.60;99.90
2226;DHT22;1119;48.288;8.726;2023-04-01T03:38:15;6.60;99.90
2226;DHT22;1119;48.288;8.726;2023-04-01T03:41:03;6.60;99.90
2226;DHT22;1119;48.288;8.726;2023-04-01T03:43:53;6.60;99.90
2226;DHT22;1119;48.288;8.726;2023-04-01T03:46:41;6.60;99.90
2226;DHT22;1119;48.288;8.726;2023-04-01T03:49:29;6.60;99.90
2226;DHT22;1119;48.288;8.726;2023-04-01T03:52:19;6.60;99.90
2226;DHT22;1119;48.288;8.726;2023-04-01T03:55:07;6.70;99.90
2226;DHT22;1119;48.288;8.726;2023-04-01T03:57:57;6.70;99.90
2226;DHT22;1119;48.288;8.726;2023-04-01T04:00:45;6.70;99.90
2226;DHT22;1119;48.288;8.726;2023-04-01T04:03:33;6.60;99.90
2226;DHT22;1119;48.288;8.726;2023-04-01T04:06:21;6.60;99.90
2226;DHT22;1119;48.288;8.726;2023-04-01T04:09:10;6.60;99.90
2226;DHT22;1119;48.288;8.726;2023-04-01T04:11:57;6.60;99.90
2226;DHT22;1119;48.288;8.726;2023-04-01T04:14:45;6.60;99.90
2226;DHT22;1119;48.288;8.726;2023-04-01T04:17:33;6.60;99.90
2226;DHT22;1119;48.288;8.726;2023-04-01T04:20:20;6.50;99.90
2226;DHT22;1119;48.288;8.726;2023-04-01T04:23:08;6.50;99.90
2226;DHT22;1119;48.288;8.726;2023-04-01T04:25:59;6.50;99.90
2226;DHT22;1119;48.288;8.726;2023-04-01T04:28:49;6.40;99.90
2226;DHT22;1119;48.288;8.726;2023-04-01T04:31:38;6.40;99.90
2226;DHT22;1119;48.288;8.726;2023-04-01T04:34:26;6.40;99.90
2226;DHT22;1119;48.288;8.726;2023-04-01T04:37:14;6.30;99.90
2226;DHT22;1119;48.288;8.726;2023-04-01T04:40:02;6.30;99.90
2226;DHT22;1119;48.288;8.726;2023-04-01T04:42:52;6.40;99.90
2226;DHT22;1119;48.288;8.726;2023-04-01T04:45:40;6.30;99.90
2226;DHT22;1119;48.288;8.726;2023-04-01T04:48:28;6.40;99.90
2226;DHT22;1119;48.288;8.726;2023-04-01T04:51:17;6.40;99.90
2226;DHT22;1119;48.288;8.726;2023-04-01T04:54:06;6.40;99.90
2226;DHT22;1119;48.288;8.726;2023-04-01T04:57:10;6.40;99.90
2226;DHT22;1119;48.288;8.726;2023-04-01T05:00:10;6.40;99.90
2226;DHT22;1119;48.288;8.726;2023-04-01T05:03:13;6.30;99.90
2226;DHT22;1119;48.288;8.726;2023-04-01T05:06:01;6.30;99.90
2226;DHT22;1119;48.288;8.726;2023-04-01T05:08:49;6.30;99.90
2226;DHT22;1119;48.288;8.726;2023-04-01T05:11:37;6.20;99.90
2226;DHT22;1119;48.288;8.726;2023-04-01T05:14:25;6.20;99.90
2226;DHT22;1119;48.288;8.726;2023-04-01T05:17:20;6.20;99.90
2226;DHT22;1119;48.288;8.726;2023-04-01T05:20:09;6.20;99.90
2226;DHT22;1119;48.288;8.726;2023-04-01T05:22:59;6.20;99.90
2226;DHT22;1119;48.288;8.726;2023-04-01T05:25:47;6.20;99.90
2226;DHT22;1119;48.288;8.726;2023-04-01T05:28:35;6.30;99.90
2226;DHT22;1119;48.288;8.726;2023-04-01T05:31:22;6.40;99.90
2226;DHT22;1119;48.288;8.726;2023-04-01T05:34:13;6.50;99.90
2226;DHT22;1119;48.288;8.726;2023-04-01T05:37:01;6.60;99.90
2226;DHT22;1119;48.288;8.726;2023-04-01T05:39:48;6.60;99.90
2226;DHT22;1119;48.288;8.726;2023-04-01T05:42:38;6.70;99.90
2226;DHT22;1119;48.288;8.726;2023-04-01T05:45:26;6.90;99.90
2226;DHT22;1119;48.288;8.726;2023-04-01T05:48:36;7.40;99.90
2226;DHT22;1119;48.288;8.726;2023-04-01T05:51:25;8.00;99.90
2226;DHT22;1119;48.288;8.726;2023-04-01T05:54:13;8.00;99.90
2226;DHT22;1119;48.288;8.726;2023-04-01T05:57:01;7.90;99.90
2226;DHT22;1119;48.288;8.726;2023-04-01T05:59:49;7.80;99.90
2226;DHT22;1119;48.288;8.726;2023-04-01T06:02:36;7.60;99.90
2226;DHT22;1119;48.288;8.726;2023-04-01T06:05:28;7.40;99.90
2226;DHT22;1119;48.288;8.726;2023-04-01T06:08:27;7.30;99.90
2226;DHT22;1119;48.288;8.726;2023-04-01T06:11:22;7.20;99.90
2226;DHT22;1119;48.288;8.726;2023-04-01T06:14:27;7.00;99.90
2226;DHT22;1119;48.288;8.726;2023-04-01T06:17:40;6.90;99.90
2226;DHT22;1119;48.288;8.726;2023-04-01T06:20:37;6.80;99.90
2226;DHT22;1119;48.288;8.726;2023-04-01T06:23:42;6.80;99.90
2226;DHT22;1119;48.288;8.726;2023-04-01T06:26:39;6.70;99.90
2226;DHT22;1119;48.288;8.726;2023-04-01T06:30:10;6.80;99.90
2226;DHT22;1119;48.288;8.726;2023-04-01T06:33:24;6.80;99.90
2226;DHT22;1119;48.288;8.726;2023-04-01T06:36:39;6.80;99.90
2226;DHT22;1119;48.288;8.726;2023-04-01T06:39:56;6.80;99.90
2226;DHT22;1119;48.288;8.726;2023-04-01T06:43:05;6.80;99.90
2226;DHT22;1119;48.288;8.726;2023-04-01T06:46:21;6.80;99.90
2226;DHT22;1119;48.288;8.726;2023-04-01T06:49:49;6.90;99.90
2226;DHT22;1119;48.288;8.726;2023-04-01T06:53:05;6.90;99.90
2226;DHT22;1119;48.288;8.726;2023-04-01T06:56:10;6.90;99.90
2226;DHT22;1119;48.288;8.726;2023-04-01T06:59:25;6.90;99.90
2226;DHT22;1119;48.288;8.726;2023-04-01T07:02:23;7.00;99.90
2226;DHT22;1119;48.288;8.726;2023-04-01T07:05:14;7.00;99.90
2226;DHT22;1119;48.288;8.726;2023-04-01T07:08:05;7.00;99.90
2226;DHT22;1119;48.288;8.726;2023-04-01T07:10:59;7.10;99.90
2226;DHT22;1119;48.288;8.726;2023-04-01T07:14:16;7.10;99.90
2226;DHT22;1119;48.288;8.726;2023-04-01T07:17:11;7.20;99.90
2226;DHT22;1119;48.288;8.726;2023-04-01T07:20:05;7.20;99.90
2226;DHT22;1119;48.288;8.726;2023-04-01T07:23:00;7.10;99.90
2226;DHT22;1119;48.288;8.726;2023-04-01T07:26:17;7.10;99.90
2226;DHT22;1119;48.288;8.726;2023-04-01T07:29:23;7.00;99.90
2226;DHT22;1119;48.288;8.726;2023-04-01T07:32:22;7.00;99.90
2226;DHT22;1119;48.288;8.726;2023-04-01T07:35:22;7.10;99.90
2226;DHT22;1119;48.288;8.726;2023-04-01T07:38:20;7.10;99.90
2226;DHT22;1119;48.288;8.726;2023-04-01T07:41:19;7.20;99.90
2226;DHT22;1119;48.288;8.726;2023-04-01T07:44:16;7.10;99.90
2226;DHT22;1119;48.288;8.726;2023-04-01T07:47:23;7.20;99.90
2226;DHT22;1119;48.288;8.726;2023-04-01T07:50:29;7.20;99.90
2226;DHT22;1119;48.288;8.726;2023-04-01T07:53:26;7.20;99.90
2226;DHT22;1119;48.288;8.726;2023-04-01T07:56:23;7.20;99.90
2226;DHT22;1119;48.288;8.726;2023-04-01T07:59:19;7.20;99.90
2226;DHT22;1119;48.288;8.726;2023-04-01T08:02:46;7.30;99.90
2226;DHT22;1119;48.288;8.726;2023-04-01T08:05:44;7.30;99.90
2226;DHT22;1119;48.288;8.726;2023-04-01T08:08:45;7.30;99.90
2226;DHT22;1119;48.288;8.726;2023-04-01T08:12:04;7.40;99.90
2226;DHT22;1119;48.288;8.726;2023-04-01T08:15:19;7.40;99.90
2226;DHT22;1119;48.288;8.726;2023-04-01T08:18:46;7.40;99.90
2226;DHT22;1119;48.288;8.726;2023-04-01T08:21:41;7.40;99.90
2226;DHT22;1119;48.288;8.726;2023-04-01T08:24:35;7.30;99.90
2226;DHT22;1119;48.288;8.726;2023-04-01T08:27:31;7.20;99.90
2226;DHT22;1119;48.288;8.726;2023-04-01T08:30:24;7.30;99.90
2226;DHT22;1119;48.288;8.726;2023-04-01T08:33:16;7.30;99.90
2226;DHT22;1119;48.288;8.726;2023-04-01T08:36:11;7.30;99.90
2226;DHT22;1119;48.288;8.726;2023-04-01T08:39:06;7.30;99.90
2226;DHT22;1119;48.288;8.726;2023-04-01T08:45:55;7.20;99.90
2226;DHT22;1119;48.288;8.726;2023-04-01T08:49:04;7.30;99.90
2226;DHT22;1119;48.288;8.726;2023-04-01T08:55:51;7.20;99.90
2226;DHT22;1119;48.288;8.726;2023-04-01T08:58:59;7.20;99.90
2226;DHT22;1119;48.288;8.726;2023-04-01T09:02:22;7.20;99.90
2226;DHT22;1119;48.288;8.726;2023-04-01T09:09:36;7.30;99.90
2226;DHT22;1119;48.288;8.726;2023-04-01T09:12:38;7.30;99.90
2226;DHT22;1119;48.288;8.726;2023-04-01T09:15:59;7.30;99.90
2226;DHT22;1119;48.288;8.726;2023-04-01T09:19:22;7.30;99.90
2226;DHT22;1119;48.288;8.726;2023-04-01T09:22:42;7.30;99.90
2226;DHT22;1119;48.288;8.726;2023-04-01T09:26:12;7.30;99.90
2226;DHT22;1119;48.288;8.726;2023-04-01T09:29:18;7.30;99.90
2226;DHT22;1119;48.288;8.726;2023-04-01T09:35:48;7.30;99.90
2226;DHT22;1119;48.288;8.726;2023-04-01T09:38:47;7.30;99.90
2226;DHT22;1119;48.288;8.726;2023-04-01T09:41:57;7.30;99.90
2226;DHT22;1119;48.288;8.726;2023-04-01T09:45:36;7.40;99.90
2226;DHT22;1119;48.288;8.726;2023-04-01T09:48:45;7.40;99.90
2226;DHT22;1119;48.288;8.726;2023-04-01T09:51:48;7.40;99.90
2226;DHT22;1119;48.288;8.726;2023-04-01T09:54:55;7.40;99.90
2226;DHT22;1119;48.288;8.726;2023-04-01T09:58:08;7.40;99.90
2226;DHT22;1119;48.288;8.726;2023-04-01T10:01:45;7.50;99.90
2226;DHT22;1119;48.288;8.726;2023-04-01T10:05:11;7.50;99.90
2226;DHT22;1119;48.288;8.726;2023-04-01T10:12:20;7.50;99.90
2226;DHT22;1119;48.288;8.726;2023-04-01T10:23:35;7.60;99.90
2226;DHT22;1119;48.288;8.726;2023-04-01T10:26:52;7.60;99.90
2226;DHT22;1119;48.288;8.726;2023-04-01T10:34:22;7.60;99.90
2226;DHT22;1119;48.288;8.726;2023-04-01T10:37:50;7.60;99.90
2226;DHT22;1119;48.288;8.726;2023-04-01T10:41:28;7.60;99.90
2226;DHT22;1119;48.288;8.726;2023-04-01T10:45:07;7.70;99.90
2226;DHT22;1119;48.288;8.726;2023-04-01T10:48:23;7.70;99.90
2226;DHT22;1119;48.288;8.726;2023-04-01T10:52:04;7.70;99.90
2226;DHT22;1119;48.288;8.726;2023-04-01T10:55:44;7.80;99.90
2226;DHT22;1119;48.288;8.726;2023-04-01T11:03:33;7.80;99.90
2226;DHT22;1119;48.288;8.726;2023-04-01T11:22:19;8.00;99.90
2226;DHT22;1119;48.288;8.726;2023-04-01T11:25:39;8.20;99.90
2226;DHT22;1119;48.288;8.726;2023-04-01T11:32:43;8.20;99.90
2226;DHT22;1119;48.288;8.726;2023-04-01T11:36:02;8.20;99.90
2226;DHT22;1119;48.288;8.726;2023-04-01T11:39:08;8.20;99.90
2226;DHT22;1119;48.288;8.726;2023-04-01T11:42:43;8.30;99.90
2226;DHT22;1119;48.288;8.726;2023-04-01T11:45:58;8.40;99.90
2226;DHT22;1119;48.288;8.726;2023-04-01T11:49:00;8.50;99.90
2226;DHT22;1119;48.288;8.726;2023-04-01T11:52:08;8.50;99.90
2226;DHT22;1119;48.288;8.726;2023-04-01T11:55:25;8.50;99.90
2226;DHT22;1119;48.288;8.726;2023-04-01T11:58:41;8.50;99.90
2226;DHT22;1119;48.288;8.726;2023-04-01T12:01:52;8.50;99.90
2226;DHT22;1119;48.288;8.726;2023-04-01T12:08:23;8.60;99.90
2226;DHT22;1119;48.288;8.726;2023-04-01T12:11:25;8.60;99.90
2226;DHT22;1119;48.288;8.726;2023-04-01T12:14:19;8.60;99.90
2226;DHT22;1119;48.288;8.726;2023-04-01T12:17:16;8.60;99.90
2226;DHT22;1119;48.288;8.726;2023-04-01T12:20:36;8.60;99.90
2226;DHT22;1119;48.288;8.726;2023-04-01T12:27:37;8.70;99.90
2226;DHT22;1119;48.288;8.726;2023-04-01T12:30:37;8.70;99.90
2226;DHT22;1119;48.288;8.726;2023-04-01T12:33:51;8.70;99.90
2226;DHT22;1119;48.288;8.726;2023-04-01T12:36:51;8.70;99.90
2226;DHT22;1119;48.288;8.726;2023-04-01T12:40:20;8.80;99.90
2226;DHT22;1119;48.288;8.726;2023-04-01T12:43:31;8.80;99.90
2226;DHT22;1119;48.288;8.726;2023-04-01T12:46:36;8.80;99.90
2226;DHT22;1119;48.288;8.726;2023-04-01T12:50:01;9.00;99.90
2226;DHT22;1119;48.288;8.726;2023-04-01T12:53:16;9.00;99.90
2226;DHT22;1119;48.288;8.726;2023-04-01T12:56:29;9.10;99.90
2226;DHT22;1119;48.288;8.726;2023-04-01T12:59:35;9.10;99.90
2226;DHT22;1119;48.288;8.726;2023-04-01T13:02:40;9.10;99.90
2226;DHT22;1119;48.288;8.726;2023-04-01T13:06:17;9.30;99.90
2226;DHT22;1119;48.288;8.726;2023-04-01T13:09:23;9.30;99.90
2226;DHT22;1119;48.288;8.726;2023-04-01T13:12:38;9.40;99.90
2226;DHT22;1119;48.288;8.726;2023-04-01T13:15:37;9.40;99.90
2226;DHT22;1119;48.288;8.726;2023-04-01T13:18:32;9.30;99.90
2226;DHT22;1119;48.288;8.726;2023-04-01T13:21:34;9.40;99.90
2226;DHT22;1119;48.288;8.726;2023-04-01T13:24:38;9.40;99.90
2226;DHT22;1119;48.288;8.726;2023-04-01T13:27:35;9.50;99.90
2226;DHT22;1119;48.288;8.726;2023-04-01T13:30:28;9.40;99.90
2226;DHT22;1119;48.288;8.726;2023-04-01T13:33:26;9.40;99.90
2226;DHT22;1119;48.288;8.726;2023-04-01T13:36:27;9.30;99.90
2226;DHT22;1119;48.288;8.726;2023-04-01T13:39:29;9.20;99.90
2226;DHT22;1119;48.288;8.726;2023-04-01T13:42:26;9.20;99.90
2226;DHT22;1119;48.288;8.726;2023-04-01T13:45:19;9.20;99.90
2226;DHT22;1119;48.288;8.726;2023-04-01T13:48:25;9.10;99.90
2226;DHT22;1119;48.288;8.726;2023-04-01T13:51:34;9.10;99.90
2226;DHT22;1119;48.288;8.726;2023-04-01T13:58:28;9.20;99.90
2226;DHT22;1119;48.288;8.726;2023-04-01T14:01:32;9.20;99.90
2226;DHT22;1119;48.288;8.726;2023-04-01T14:04:39;9.20;99.90
2226;DHT22;1119;48.288;8.726;2023-04-01T14:07:50;9.20;99.90
2226;DHT22;1119;48.288;8.726;2023-04-01T14:10:50;9.20;99.90
2226;DHT22;1119;48.288;8.726;2023-04-01T14:13:53;9.20;99.90
2226;DHT22;1119;48.288;8.726;2023-04-01T14:17:10;9.20;99.90
2226;DHT22;1119;48.288;8.726;2023-04-01T14:20:31;9.30;99.90
2226;DHT22;1119;48.288;8.726;2023-04-01T14:23:39;9.30;99.90
2226;DHT22;1119;48.288;8.726;2023-04-01T14:30:39;9.40;99.90
2226;DHT22;1119;48.288;8.726;2023-04-01T14:33:42;9.40;99.90
2226;DHT22;1119;48.288;8.726;2023-04-01T14:36:43;9.50;99.90
2226;DHT22;1119;48.288;8.726;2023-04-01T14:47:27;9.50;99.90
2226;DHT22;1119;48.288;8.726;2023-04-01T14:50:24;9.60;99.90
2226;DHT22;1119;48.288;8.726;2023-04-01T14:53:26;9.70;99.90
2226;DHT22;1119;48.288;8.726;2023-04-01T14:56:35;9.70;99.90
2226;DHT22;1119;48.288;8.726;2023-04-01T14:59:28;9.80;99.90
2226;DHT22;1119;48.288;8.726;2023-04-01T15:02:35;9.90;99.90
2226;DHT22;1119;48.288;8.726;2023-04-01T15:05:39;10.00;99.90
2226;DHT22;1119;48.288;8.726;2023-04-01T15:08:32;10.00;99.90
2226;DHT22;1119;48.288;8.726;2023-04-01T15:11:34;10.10;99.90
2226;DHT22;1119;48.288;8.726;2023-04-01T15:14:46;10.20;99.90
2226;DHT22;1119;48.288;8.726;2023-04-01T15:17:55;10.10;99.90
2226;DHT22;1119;48.288;8.726;2023-04-01T15:21:01;10.00;99.90
2226;DHT22;1119;48.288;8.726;2023-04-01T15:23:58;9.90;99.90
2226;DHT22;1119;48.288;8.726;2023-04-01T15:27:07;9.80;99.90
2226;DHT22;1119;48.288;8.726;2023-04-01T15:30:27;9.80;99.90
2226;DHT22;1119;48.288;8.726;2023-04-01T15:36:43;9.70;99.90
2226;DHT22;1119;48.288;8.726;2023-04-01T15:39:45;9.70;99.90
2226;DHT22;1119;48.288;8.726;2023-04-01T15:42:51;9.70;99.90
2226;DHT22;1119;48.288;8.726;2023-04-01T15:45:49;9.60;99.90
2226;DHT22;1119;48.288;8.726;2023-04-01T15:48:53;9.80;99.90
2226;DHT22;1119;48.288;8.726;2023-04-01T15:55:14;9.60;99.90
2226;DHT22;1119;48.288;8.726;2023-04-01T15:58:29;9.60;99.90
2226;DHT22;1119;48.288;8.726;2023-04-01T16:01:33;9.60;99.90
2226;DHT22;1119;48.288;8.726;2023-04-01T16:04:41;9.60;99.90
2226;DHT22;1119;48.288;8.726;2023-04-01T16:08:00;9.60;99.90
2226;DHT22;1119;48.288;8.726;2023-04-01T16:11:18;9.70;99.90
2226;DHT22;1119;48.288;8.726;2023-04-01T16:14:18;9.70;99.90
2226;DHT22;1119;48.288;8.726;2023-04-01T16:17:44;9.70;99.90
2226;DHT22;1119;48.288;8.726;2023-04-01T16:20:45;9.70;99.90
2226;DHT22;1119;48.288;8.726;2023-04-01T16:23:40;9.70;99.90
2226;DHT22;1119;48.288;8.726;2023-04-01T16:26:37;9.70;99.90
2226;DHT22;1119;48.288;8.726;2023-04-01T16:29:35;9.80;99.90
2226;DHT22;1119;48.288;8.726;2023-04-01T16:32:37;9.70;99.90
2226;DHT22;1119;48.288;8.726;2023-04-01T16:35:37;9.70;99.90
2226;DHT22;1119;48.288;8.726;2023-04-01T16:38:36;9.60;99.90
2226;DHT22;1119;48.288;8.726;2023-04-01T16:41:31;9.60;99.90
2226;DHT22;1119;48.288;8.726;2023-04-01T16:44:21;9.60;99.90
2226;DHT22;1119;48.288;8.726;2023-04-01T16:47:12;9.60;99.90
2226;DHT22;1119;48.288;8.726;2023-04-01T16:50:13;9.70;99.90
2226;DHT22;1119;48.288;8.726;2023-04-01T16:53:08;9.70;99.90
2226;DHT22;1119;48.288;8.726;2023-04-01T16:56:10;10.30;99.90
2226;DHT22;1119;48.288;8.726;2023-04-01T16:59:03;9.70;99.90
2226;DHT22;1119;48.288;8.726;2023-04-01T17:02:02;9.60;99.90
2226;DHT22;1119;48.288;8.726;2023-04-01T17:04:57;9.60;99.90
2226;DHT22;1119;48.288;8.726;2023-04-01T17:07:54;9.50;99.90
2226;DHT22;1119;48.288;8.726;2023-04-01T17:14:04;9.40;99.90
2226;DHT22;1119;48.288;8.726;2023-04-01T17:17:14;9.40;99.90
2226;DHT22;1119;48.288;8.726;2023-04-01T17:20:43;9.30;99.90
2226;DHT22;1119;48.288;8.726;2023-04-01T17:23:38;9.30;99.90
2226;DHT22;1119;48.288;8.726;2023-04-01T17:26:37;9.20;99.90
2226;DHT22;1119;48.288;8.726;2023-04-01T17:29:38;9.20;99.90
2226;DHT22;1119;48.288;8.726;2023-04-01T17:32:42;9.10;99.90
2226;DHT22;1119;48.288;8.726;2023-04-01T17:35:39;9.00;99.90
2226;DHT22;1119;48.288;8.726;2023-04-01T17:38:45;8.90;99.90
2226;DHT22;1119;48.288;8.726;2023-04-01T17:41:48;8.90;99.90
2226;DHT22;1119;48.288;8.726;2023-04-01T17:44:51;8.80;99.90
2226;DHT22;1119;48.288;8.726;2023-04-01T17:47:52;8.80;99.90
2226;DHT22;1119;48.288;8.726;2023-04-01T17:50:53;8.70;99.90
2226;DHT22;1119;48.288;8.726;2023-04-01T17:53:57;8.70;99.90
2226;DHT22;1119;48.288;8.726;2023-04-01T17:56:57;8.70;99.90
2226;DHT22;1119;48.288;8.726;2023-04-01T17:59:57;8.70;99.90
2226;DHT22;1119;48.288;8.726;2023-04-01T18:03:11;8.60;99.90
2226;DHT22;1119;48.288;8.726;2023-04-01T18:06:04;8.60;99.90
2226;DHT22;1119;48.288;8.726;2023-04-01T18:08:59;8.60;99.90
2226;DHT22;1119;48.288;8.726;2023-04-01T18:11:56;8.60;99.90
2226;DHT22;1119;48.288;8.726;2023-04-01T18:15:11;8.60;99.90
2226;DHT22;1119;48.288;8.726;2023-04-01T18:18:17;8.60;99.90
2226;DHT22;1119;48.288;8.726;2023-04-01T18:21:25;8.60;99.90
2226;DHT22;1119;48.288;8.726;2023-04-01T18:24:24;8.60;99.90
2226;DHT22;1119;48.288;8.726;2023-04-01T18:27:18;8.50;99.90
2226;DHT22;1119;48.288;8.726;2023-04-01T18:30:15;8.50;99.90
2226;DHT22;1119;48.288;8.726;2023-04-01T18:33:09;8.40;99.90
2226;DHT22;1119;48.288;8.726;2023-04-01T18:36:13;8.40;99.90
2226;DHT22;1119;48.288;8.726;2023-04-01T18:39:09;8.30;99.90
2226;DHT22;1119;48.288;8.726;2023-04-01T18:42:05;8.30;99.90
2226;DHT22;1119;48.288;8.726;2023-04-01T18:44:57;8.30;99.90
2226;DHT22;1119;48.288;8.726;2023-04-01T18:47:58;8.30;99.90
2226;DHT22;1119;48.288;8.726;2023-04-01T18:50:55;8.20;99.90
2226;DHT22;1119;48.288;8.726;2023-04-01T18:53:50;8.20;99.90
2226;DHT22;1119;48.288;8.726;2023-04-01T18:56:42;8.20;99.90
2226;DHT22;1119;48.288;8.726;2023-04-01T18:59:36;8.20;99.90
2226;DHT22;1119;48.288;8.726;2023-04-01T19:02:31;8.10;99.90
2226;DHT22;1119;48.288;8.726;2023-04-01T19:05:30;8.10;99.90
2226;DHT22;1119;48.288;8.726;2023-04-01T19:08:26;8.20;99.90
2226;DHT22;1119;48.288;8.726;2023-04-01T19:11:23;8.10;99.90
2226;DHT22;1119;48.288;8.726;2023-04-01T19:14:19;8.10;99.90
2226;DHT22;1119;48.288;8.726;2023-04-01T19:17:20;8.10;99.90
2226;DHT22;1119;48.288;8.726;2023-04-01T19:20:18;8.10;99.90
2226;DHT22;1119;48.288;8.726;2023-04-01T19:26:37;8.00;99.90
2226;DHT22;1119;48.288;8.726;2023-04-01T19:29:39;7.90;99.90
2226;DHT22;1119;48.288;8.726;2023-04-01T19:32:45;7.90;99.90
2226;DHT22;1119;48.288;8.726;2023-04-01T19:35:41;7.90;99.90
2226;DHT22;1119;48.288;8.726;2023-04-01T19:38:37;7.90;99.90
2226;DHT22;1119;48.288;8.726;2023-04-01T19:41:34;7.80;99.90
2226;DHT22;1119;48.288;8.726;2023-04-01T19:44:33;7.80;99.90
2226;DHT22;1119;48.288;8.726;2023-04-01T19:47:44;7.80;99.90
2226;DHT22;1119;48.288;8.726;2023-04-01T19:50:38;7.80;99.90
2226;DHT22;1119;48.288;8.726;2023-04-01T19:53:34;7.80;99.90
2226;DHT22;1119;48.288;8.726;2023-04-01T19:56:33;7.80;99.90
2226;DHT22;1119;48.288;8.726;2023-04-01T19:59:31;7.80;99.90
2226;DHT22;1119;48.288;8.726;2023-04-01T20:02:52;7.80;99.90
2226;DHT22;1119;48.288;8.726;2023-04-01T20:05:50;7.80;99.90
2226;DHT22;1119;48.288;8.726;2023-04-01T20:08:54;7.80;99.90
2226;DHT22;1119;48.288;8.726;2023-04-01T20:11:56;7.80;99.90
2226;DHT22;1119;48.288;8.726;2023-04-01T20:14:49;7.80;99.90
2226;DHT22;1119;48.288;8.726;2023-04-01T20:17:41;7.70;99.90
2226;DHT22;1119;48.288;8.726;2023-04-01T20:20:32;7.70;99.90
2226;DHT22;1119;48.288;8.726;2023-04-01T20:23:38;7.70;99.90
2226;DHT22;1119;48.288;8.726;2023-04-01T20:26:32;7.60;99.90
2226;DHT22;1119;48.288;8.726;2023-04-01T20:29:56;7.60;99.90
2226;DHT22;1119;48.288;8.726;2023-04-01T20:33:13;7.60;99.90
2226;DHT22;1119;48.288;8.726;2023-04-01T20:36:14;7.70;99.90
2226;DHT22;1119;48.288;8.726;2023-04-01T20:39:24;7.60;99.90
2226;DHT22;1119;48.288;8.726;2023-04-01T20:42:29;7.60;99.90
2226;DHT22;1119;48.288;8.726;2023-04-01T20:45:31;7.50;99.90
2226;DHT22;1119;48.288;8.726;2023-04-01T20:51:53;7.30;99.90
2226;DHT22;1119;48.288;8.726;2023-04-01T20:54:53;7.30;99.90
2226;DHT22;1119;48.288;8.726;2023-04-01T20:58:00;7.30;99.90
2226;DHT22;1119;48.288;8.726;2023-04-01T21:01:00;7.20;99.90
2226;DHT22;1119;48.288;8.726;2023-04-01T21:03:58;7.20;99.90
2226;DHT22;1119;48.288;8.726;2023-04-01T21:10:29;7.10;99.90
2226;DHT22;1119;48.288;8.726;2023-04-01T21:16:49;7.20;99.90
2226;DHT22;1119;48.288;8.726;2023-04-01T21:19:55;7.20;99.90
2226;DHT22;1119;48.288;8.726;2023-04-01T21:23:11;7.30;99.90
2226;DHT22;1119;48.288;8.726;2023-04-01T21:26:26;7.40;99.90
2226;DHT22;1119;48.288;8.726;2023-04-01T21:29:36;7.50;99.90
2226;DHT22;1119;48.288;8.726;2023-04-01T21:32:50;7.50;99.90
2226;DHT22;1119;48.288;8.726;2023-04-01T21:35:50;7.60;99.90
2226;DHT22;1119;48.288;8.726;2023-04-01T21:38:59;7.60;99.90
2226;DHT22;1119;48.288;8.726;2023-04-01T21:42:14;7.70;99.90